createdAt,value
2016-06-08T12:31:58.139Z,955.05
2016-06-08T12:32:58.844Z,955.06
2016-06-08T12:33:57.972Z,955.03
2016-06-08T12:34:58.818Z,955.03
2016-06-08T12:35:58.665Z,954.99
2016-06-08T12:36:57.965Z,955.01
2016-06-08T12:37:59.045Z,955.03
2016-06-08T12:38:58.032Z,955.04
2016-06-08T12:39:58.020Z,954.97
2016-06-08T12:40:57.740Z,954.94
2016-06-08T12:41:57.978Z,954.92
2016-06-08T12:42:58.012Z,954.9
2016-06-08T12:43:57.749Z,954.9
2016-06-08T12:44:58.017Z,954.89
2016-06-08T12:45:57.989Z,954.86
2016-06-08T12:46:57.976Z,954.85
2016-06-08T12:47:58.041Z,954.86
2016-06-08T12:49:00.497Z,954.85
2016-06-08T12:49:59.500Z,954.88
2016-06-08T12:50:57.971Z,954.87
2016-06-08T12:51:58.270Z,954.85
2016-06-08T12:52:58.008Z,954.82
2016-06-08T12:53:58.010Z,954.82
2016-06-08T12:55:01.107Z,954.83
2016-06-08T12:56:11.688Z,954.8
2016-06-08T12:57:27.846Z,954.81
2016-06-08T12:58:40.430Z,954.77
2016-06-08T12:59:39.808Z,954.83
2016-06-08T13:00:39.842Z,954.83
2016-06-08T13:01:39.829Z,954.84
2016-06-08T13:02:39.988Z,954.79
2016-06-08T13:03:41.177Z,954.77
2016-06-08T13:04:40.009Z,954.78
2016-06-08T13:05:39.558Z,954.74
2016-06-08T13:06:44.232Z,954.75
2016-06-08T13:07:49.329Z,954.72
2016-06-08T13:08:50.190Z,954.78
2016-06-08T13:09:52.522Z,954.78
2016-06-08T13:10:49.776Z,954.8
2016-06-08T13:11:50.184Z,954.79
2016-06-08T13:12:50.186Z,954.81
2016-06-08T13:13:50.314Z,954.77
2016-06-08T13:14:49.645Z,954.81
2016-06-08T13:15:49.601Z,954.79
